Aviation Digital Data Service (ADDS)

Output produced by METARs form (2111 UTC 23 July 2016)
found at http://aviationweather.gov/adds/metars/
 
KLYH 231724Z 2318/2418 20005KT P6SM FEW050 
     FM240000 VRB03KT P6SM SKC